X  Luk Metar data     EBBR Brussels Airport
Temperatur
4°C Temperatur
1°C Duggpunkt
81% Fugtighed



Vind
10 KM/T
6 MPT
3 M/S
5 KNOB



250°
VSV
Nuværende forhold

Let  Regn, Let  Støvregn Let Regn, Let Støvregn
Tryk 1020.92 (hPa) - 30.15 (inHg)
Sigt 6.2 (mil) - 10 (km)
Lufthavn
Lufthavnskode EBBR

Lokation: Brussels Airport
Afstand: 14 (km)

Metar:
EBBR 090020Z 25005KT 9999 -RADZ SCT012 BKN039 04/01 Q1021 NOSIG

Tid: 03-09-2021 01:20 CET